KARR/ARR METAR and TAF weather

Enter ICAO airport designator
Station Type Date Time Source
KARR METAR 2021/07/28 19:52 UTC NOAA

KARR 281952Z 25009KT 10SM BKN029 29/24 A3000 RMK AO2 SLP153 T02940239


Station Type Date Time Source
KARR Decoded METAR 2021/07/28 19:52 UTC NOAA

CHICAGO AURORA MUNICIPAL, IL, United States (KARR) 41-46N 088-28W 215M
Jul 28, 2021 - 03:52 PM EDT / 2021.07.28 1952 UTC
Wind: from the WSW (250 degrees) at 10 MPH (9 KT):0
Visibility: 10 mile(s):0
Sky conditions: mostly cloudy
Temperature: 84.9 F (29.4 C)
Dew Point: 75.0 F (23.9 C)
Relative Humidity: 72%
Pressure (altimeter): 30 in. Hg (1015 hPa)
ob: KARR 281952Z 25009KT 10SM BKN029 29/24 A3000 RMK AO2 SLP153 T02940239
cycle: 20

Station Type Date Time Source
KARR TAF UTC NOAA

Error!

Example: see airport list